CheckWX is a tool to help pilots better visualize weather data.  It is not intended as a substitute for an official pre-flight weather briefing.

12:02:15 UTC

LKLN METAR
Plzen Line Airport
Plzen, Czech Republic
Current

32 mins ago

LKLN 281130Z AUTO VRB03KT 9999 -RA SCT050 OVC063 12/06 Q1028
Observed
May-28 @ 11:30 UTC
Wind
  • Variable at 3 KTS
Visibility
10,000+ meters
Flight Rules
VFR
Conditions
Light Rain
Cloud Levels
  • Scattered at 5,000' AGL
  • Overcast at 6,300' AGL
Temperature
12°C / 54°F
Dewpoint
C / 43°F
Humidity
67%
Altimeter
30.35" Hg
Pressure
1027.92 hPa
Previous

1 hour ago

LKLN 281100Z AUTO 03008KT 330V080 9999 -RA BKN051 OVC083 12/05 Q1028
Observed
May-28 @ 11:00 UTC
Wind
  • 030° at 8 KTS
Visibility
10,000+ meters
Flight Rules
VFR
Conditions
Light Rain
Cloud Levels
  • Broken at 5,100' AGL
  • Overcast at 8,300' AGL
Temperature
12°C / 54°F
Dewpoint
C / 41°F
Humidity
63%
Altimeter
30.35" Hg
Pressure
1027.92 hPa
Previous

2 hours ago

LKLN 281030Z AUTO 01003KT 300V080 9999 FEW039 OVC083 15/05 Q1028
Observed
May-28 @ 10:30 UTC
Wind
  • 010° at 3 KTS
Visibility
10,000+ meters
Flight Rules
VFR
Cloud Levels
  • Few at 3,900' AGL
  • Overcast at 8,300' AGL
Temperature
15°C / 59°F
Dewpoint
C / 41°F
Humidity
51%
Altimeter
30.35" Hg
Pressure
1027.92 hPa